createdAt,value
2023-03-07T00:01:08.906Z,1010.5
2023-03-07T00:06:29.465Z,1010.4
2023-03-07T00:11:58.319Z,1010.6
2023-03-07T00:17:36.600Z,1010.5
2023-03-07T00:23:03.274Z,1010.5
2023-03-07T00:28:41.971Z,1010.6
2023-03-07T00:34:16.886Z,1010.7
2023-03-07T00:39:38.197Z,1010.8
2023-03-07T00:45:26.252Z,1010.9
2023-03-07T00:50:41.593Z,1010.8
2023-03-07T00:56:30.324Z,1010.8
2023-03-07T01:01:55.656Z,1010.8
2023-03-07T01:07:40.778Z,1010.9
2023-03-07T01:13:09.922Z,1010.7
2023-03-07T01:18:23.720Z,1010.7
2023-03-07T01:24:03.909Z,1010.8
2023-03-07T01:29:39.720Z,1010.8
2023-03-07T01:35:23.013Z,1010.7
2023-03-07T01:40:48.200Z,1010.7
2023-03-07T01:46:07.350Z,1010.7
2023-03-07T01:51:54.696Z,1010.4
2023-03-07T01:57:19.426Z,1010.5
2023-03-07T02:02:47.339Z,1010.5
2023-03-07T02:08:28.796Z,1010.7
2023-03-07T02:13:48.964Z,1010.8
2023-03-07T02:19:25.937Z,1010.7
2023-03-07T02:25:08.793Z,1010.6
2023-03-07T02:30:30.164Z,1010.6
2023-03-07T02:36:15.323Z,1010.7
2023-03-07T02:41:37.755Z,1010.6
2023-03-07T02:47:07.518Z,1010.4
2023-03-07T02:52:57.501Z,1010.3
2023-03-07T02:58:36.686Z,1010.3
2023-03-07T03:03:43.179Z,1010.4
2023-03-07T03:09:30.805Z,1010.5
2023-03-07T03:14:56.615Z,1010.4
2023-03-07T03:20:31.678Z,1010.4
2023-03-07T03:26:06.200Z,1010.3
2023-03-07T03:31:28.962Z,1010.3
2023-03-07T03:37:22.810Z,1010.2
2023-03-07T03:42:36.038Z,1010.1
2023-03-07T03:48:13.677Z,1010
2023-03-07T03:53:47.605Z,1009.9
2023-03-07T03:59:30.703Z,1009.8
2023-03-07T04:04:48.043Z,1009.7
2023-03-07T04:10:21.653Z,1009.6
2023-03-07T04:16:10.550Z,1009.7
2023-03-07T04:21:28.337Z,1009.7
2023-03-07T04:27:16.037Z,1009.7
2023-03-07T04:32:30.271Z,1009.5
2023-03-07T04:38:27.572Z,1009.5
2023-03-07T04:43:57.156Z,1009.3
2023-03-07T04:49:11.560Z,1009.3
2023-03-07T04:54:40.706Z,1009.3
2023-03-07T05:00:17.817Z,1009.2
2023-03-07T05:05:53.394Z,1009.2
2023-03-07T05:11:42.841Z,1009.1
2023-03-07T05:17:11.002Z,1009.1
2023-03-07T05:22:25.564Z,1009.2
2023-03-07T05:27:57.054Z,1008.9
2023-03-07T05:33:49.776Z,1008.9
2023-03-07T05:39:12.034Z,1009.1
2023-03-07T05:44:50.414Z,1009.1
2023-03-07T05:50:08.962Z,1009
2023-03-07T05:55:49.858Z,1008.9
2023-03-07T06:01:29.070Z,1009
2023-03-07T06:07:12.603Z,1009
2023-03-07T06:12:30.080Z,1009
2023-03-07T06:17:54.640Z,1008.9
2023-03-07T06:23:39.246Z,1009.1
2023-03-07T06:34:53.025Z,1009
2023-03-07T06:40:23.625Z,1008.7
2023-03-07T06:45:42.528Z,1008.5
2023-03-07T06:51:28.669Z,1008.5
2023-03-07T06:56:51.199Z,1008.5
2023-03-07T07:02:41.954Z,1008.6
2023-03-07T07:08:09.038Z,1008.6
2023-03-07T07:13:28.012Z,1008.6
2023-03-07T07:19:00.388Z,1008.6
2023-03-07T07:24:44.707Z,1008.8
2023-03-07T07:30:03.001Z,1008.8
2023-03-07T07:35:50.860Z,1008.9
2023-03-07T07:41:18.638Z,1008.8
2023-03-07T07:47:08.495Z,1008.5
2023-03-07T07:52:20.636Z,1008
2023-03-07T07:58:08.312Z,1007.6
2023-03-07T08:03:45.484Z,1007.8
2023-03-07T08:09:02.980Z,1007.7
2023-03-07T08:14:45.479Z,1007.9
2023-03-07T08:20:25.927Z,1007.7
2023-03-07T08:25:59.438Z,1007.4
2023-03-07T08:31:28.613Z,1007.2
2023-03-07T08:37:05.769Z,1007.3
2023-03-07T08:42:21.894Z,1007.1
2023-03-07T08:48:01.732Z,1007
2023-03-07T08:53:42.509Z,1006.9
2023-03-07T08:59:14.990Z,1006.8
2023-03-07T09:04:58.908Z,1006.9
2023-03-07T09:10:24.173Z,1006.8
2023-03-07T09:16:13.574Z,1006.6
2023-03-07T09:21:31.230Z,1006.6
2023-03-07T09:27:08.568Z,1006.3
2023-03-07T09:32:53.076Z,1006.6
2023-03-07T09:38:30.669Z,1006.4
2023-03-07T09:43:49.055Z,1006
2023-03-07T09:49:40.034Z,1005.9
2023-03-07T09:55:21.964Z,1005.9
2023-03-07T10:00:56.907Z,1005.6
2023-03-07T10:06:26.134Z,1005.7
2023-03-07T10:11:51.468Z,1005.4
2023-03-07T10:17:24.059Z,1005.1
2023-03-07T10:22:51.082Z,1005.3
2023-03-07T10:28:42.656Z,1005.3
2023-03-07T10:34:26.882Z,1005.1
2023-03-07T10:39:51.140Z,1005.1
2023-03-07T10:45:34.618Z,1005.1
2023-03-07T10:51:03.416Z,1005
2023-03-07T10:56:42.456Z,1004.8
2023-03-07T11:02:24.628Z,1004.9
2023-03-07T11:07:37.447Z,1004.7
2023-03-07T11:13:09.991Z,1004.7
2023-03-07T11:18:44.664Z,1004.4
2023-03-07T11:24:38.613Z,1004.3
2023-03-07T11:30:22.126Z,1004.4
2023-03-07T11:35:30.753Z,1004.2
2023-03-07T11:41:29.139Z,1004.2
2023-03-07T11:46:54.856Z,1004.1
2023-03-07T11:52:39.557Z,1004
2023-03-07T11:57:56.817Z,1003.9
2023-03-07T12:03:40.899Z,1003.9
2023-03-07T12:09:13.839Z,1003.8
2023-03-07T12:14:53.561Z,1003.7
2023-03-07T12:20:40.968Z,1003.5
2023-03-07T12:25:50.916Z,1003.4
2023-03-07T12:31:35.808Z,1003.2
2023-03-07T12:36:59.324Z,1003.1
2023-03-07T12:42:57.723Z,1003
2023-03-07T12:48:18.618Z,1002.8
2023-03-07T12:54:04.608Z,1002.7
2023-03-07T12:59:28.032Z,1002.9
2023-03-07T13:04:55.282Z,1002.9
2023-03-07T13:10:51.140Z,1003
2023-03-07T13:16:18.774Z,1003
2023-03-07T13:21:44.819Z,1003.1
2023-03-07T13:27:19.997Z,1002.9
2023-03-07T13:33:15.177Z,1002.9
2023-03-07T13:38:28.840Z,1002.5
2023-03-07T13:44:08.075Z,1002.8
2023-03-07T13:49:47.377Z,1002.8
2023-03-07T13:55:34.204Z,1002.9
2023-03-07T14:01:06.449Z,1002.8
2023-03-07T14:06:34.441Z,1002.7
2023-03-07T14:12:12.863Z,1002.6
2023-03-07T14:17:45.793Z,1002.7
2023-03-07T14:23:20.040Z,1002.7
2023-03-07T14:28:52.896Z,1002.7
2023-03-07T14:39:53.379Z,1002.8
2023-03-07T14:45:28.964Z,1003
2023-03-07T14:50:57.531Z,1003
2023-03-07T14:56:37.068Z,1003
2023-03-07T15:02:13.812Z,1003
2023-03-07T15:07:48.169Z,1002.9
2023-03-07T15:13:19.654Z,1003
2023-03-07T15:19:11.508Z,1003
2023-03-07T15:24:24.320Z,1002.9
2023-03-07T15:29:59.348Z,1003
2023-03-07T15:35:34.612Z,1003.4
2023-03-07T15:41:24.024Z,1003.3
2023-03-07T15:46:48.423Z,1003.3
2023-03-07T15:52:35.475Z,1003.3
2023-03-07T15:58:00.183Z,1003.3
2023-03-07T16:03:36.424Z,1003.5
2023-03-07T16:09:13.530Z,1003.6
2023-03-07T16:14:34.158Z,1003.7
2023-03-07T16:20:07.011Z,1003.8
2023-03-07T16:26:01.655Z,1004
2023-03-07T16:31:16.089Z,1004.1
2023-03-07T16:36:50.460Z,1004.2
2023-03-07T16:42:28.786Z,1004.4
2023-03-07T16:48:01.652Z,1004.6
2023-03-07T16:53:45.937Z,1004.6
2023-03-07T16:59:18.339Z,1004.7
2023-03-07T17:04:47.847Z,1004.9
2023-03-07T17:10:29.798Z,1004.9
2023-03-07T17:16:02.806Z,1005
2023-03-07T17:21:49.013Z,1005.3
2023-03-07T17:27:19.255Z,1005.6
2023-03-07T17:32:56.795Z,1005.7
2023-03-07T17:38:08.926Z,1005.8
2023-03-07T17:43:59.972Z,1005.9
2023-03-07T17:49:42.413Z,1005.8
2023-03-07T17:55:18.224Z,1006
2023-03-07T18:00:34.228Z,1006.1
2023-03-07T18:06:26.086Z,1006.2
2023-03-07T18:11:42.159Z,1006.3
2023-03-07T18:17:24.959Z,1006.2
2023-03-07T18:22:42.597Z,1006.5
2023-03-07T18:28:38.530Z,1006.5
2023-03-07T18:34:16.814Z,1006.5
2023-03-07T18:39:33.535Z,1006.4
2023-03-07T18:45:05.499Z,1006.6
2023-03-07T18:50:58.234Z,1006.6
2023-03-07T18:56:16.195Z,1006.8
2023-03-07T19:02:02.634Z,1007
2023-03-07T19:07:40.100Z,1007
2023-03-07T19:12:51.117Z,1007.2
2023-03-07T19:18:39.416Z,1007.2
2023-03-07T19:24:15.721Z,1007.3
2023-03-07T19:29:48.395Z,1007.3
2023-03-07T19:35:23.342Z,1007.4
2023-03-07T19:40:50.676Z,1007.7
2023-03-07T19:46:14.012Z,1007.8
2023-03-07T19:51:55.339Z,1008
2023-03-07T19:57:29.748Z,1007.9
2023-03-07T20:03:21.753Z,1008
2023-03-07T20:08:39.630Z,1008
2023-03-07T20:14:11.975Z,1008
2023-03-07T20:19:55.684Z,1008
2023-03-07T20:25:31.422Z,1008
2023-03-07T20:30:47.775Z,1007.9
2023-03-07T20:36:34.697Z,1008
2023-03-07T20:42:00.918Z,1008
2023-03-07T20:47:49.897Z,1007.9
2023-03-07T20:53:08.439Z,1008
2023-03-07T20:58:35.407Z,1008.1
2023-03-07T21:04:14.334Z,1008
2023-03-07T21:10:00.874Z,1008.1
2023-03-07T21:15:18.270Z,1008.2
2023-03-07T21:20:53.813Z,1008
2023-03-07T21:26:44.137Z,1008
2023-03-07T21:32:14.877Z,1008.1
2023-03-07T21:37:36.181Z,1008
2023-03-07T21:43:32.484Z,1008.1
2023-03-07T21:49:00.139Z,1008.1
2023-03-07T21:54:26.971Z,1008
2023-03-07T21:59:49.711Z,1008
2023-03-07T22:05:40.330Z,1008.1
2023-03-07T22:11:06.467Z,1008.1
2023-03-07T22:16:39.866Z,1008.1
2023-03-07T22:22:23.837Z,1008.1
2023-03-07T22:28:02.377Z,1008.1
2023-03-07T22:33:28.894Z,1008.2
2023-03-07T22:39:13.401Z,1008.2
2023-03-07T22:44:43.688Z,1008.1
2023-03-07T22:50:13.718Z,1008
2023-03-07T22:55:55.968Z,1008
2023-03-07T23:01:18.091Z,1008
2023-03-07T23:06:38.922Z,1008.1
2023-03-07T23:12:34.468Z,1008.4
2023-03-07T23:17:59.691Z,1008.3
2023-03-07T23:23:34.224Z,1008.4
2023-03-07T23:29:09.092Z,1008.6
2023-03-07T23:34:33.949Z,1008.6
2023-03-07T23:39:59.724Z,1008.7
2023-03-07T23:45:47.476Z,1008.7
2023-03-07T23:51:21.954Z,1008.6
2023-03-07T23:56:53.757Z,1008.6
